Time,TemperatureF,DewpointF,PressureIn,WindDirection,WindDirectionDegrees,WindSpeedMPH,WindSpeedGustMPH,Humidity,HourlyPrecipIn,Conditions,Clouds,dailyrainin,SoftwareType,DateUTC
2013-05-24 00:02:00,54.0,38.6,29.91,SW,225,0.2,0.7,56,0.00,,,0.00,WUHU216HW,2013-05-24 07:02:00,
2013-05-24 00:07:00,53.8,39.3,29.91,SE,135,0.4,0.4,58,0.00,,,0.00,WUHU216HW,2013-05-24 07:07:00,
2013-05-24 00:12:00,53.8,39.9,29.91,SE,135,0.0,0.7,59,0.00,,,0.00,WUHU216HW,2013-05-24 07:12:00,
2013-05-24 00:17:00,54.0,40.0,29.90,SE,135,0.0,0.7,59,0.00,,,0.00,WUHU216HW,2013-05-24 07:17:00,
2013-05-24 00:22:00,54.2,40.6,29.90,SE,135,0.2,0.4,60,0.00,,,0.00,WUHU216HW,2013-05-24 07:22:00,
2013-05-24 00:27:00,54.2,40.1,29.90,SE,135,0.0,0.4,59,0.00,,,0.00,WUHU216HW,2013-05-24 07:27:00,
2013-05-24 00:32:00,54.2,39.7,29.90,SE,135,0.0,0.2,58,0.00,,,0.00,WUHU216HW,2013-05-24 07:32:00,
2013-05-24 00:37:00,54.0,40.5,29.90,SE,135,0.0,0.0,60,0.00,,,0.00,WUHU216HW,2013-05-24 07:37:00,
2013-05-24 00:42:00,53.6,40.5,29.90,North,0,0.4,0.4,61,0.00,,,0.00,WUHU216HW,2013-05-24 07:42:00,
2013-05-24 00:47:00,53.5,40.3,29.90,West,270,0.7,1.1,61,0.00,,,0.00,WUHU216HW,2013-05-24 07:47:00,
2013-05-24 00:52:00,52.9,40.6,29.90,West,270,0.0,1.1,63,0.00,,,0.00,WUHU216HW,2013-05-24 07:52:00,
2013-05-24 00:57:00,52.4,40.5,29.90,NW,315,0.0,0.7,64,0.00,,,0.00,WUHU216HW,2013-05-24 07:57:00,
2013-05-24 01:02:00,52.0,40.6,29.90,NW,315,0.2,0.4,65,0.00,,,0.00,WUHU216HW,2013-05-24 08:02:00,
2013-05-24 01:07:00,51.8,40.0,29.90,NW,315,0.0,0.4,64,0.00,,,0.00,WUHU216HW,2013-05-24 08:07:00,
2013-05-24 01:12:00,51.8,40.4,29.90,NW,315,0.0,0.2,65,0.00,,,0.00,WUHU216HW,2013-05-24 08:12:00,
2013-05-24 01:17:00,51.7,39.9,29.90,NW,315,0.0,0.0,64,0.00,,,0.00,WUHU216HW,2013-05-24 08:17:00,
2013-05-24 01:22:00,51.7,40.7,29.90,NW,315,0.2,0.2,66,0.00,,,0.00,WUHU216HW,2013-05-24 08:22:00,
2013-05-24 01:27:00,51.5,40.5,29.90,NW,315,0.0,0.2,66,0.00,,,0.00,WUHU216HW,2013-05-24 08:27:00,
2013-05-24 01:32:00,51.7,40.7,29.90,NW,315,0.0,0.2,66,0.00,,,0.00,WUHU216HW,2013-05-24 08:32:00,
2013-05-24 01:37:00,51.7,39.9,29.90,NW,315,0.0,0.2,64,0.00,,,0.00,WUHU216HW,2013-05-24 08:37:00,
2013-05-24 01:42:00,51.7,39.9,29.90,NW,315,0.0,0.0,64,0.00,,,0.00,WUHU216HW,2013-05-24 08:42:00,
2013-05-24 01:47:00,51.7,39.9,29.90,NW,315,0.0,0.0,64,0.00,,,0.00,WUHU216HW,2013-05-24 08:47:00,
2013-05-24 01:52:00,51.7,39.4,29.90,NW,315,0.0,0.0,63,0.00,,,0.00,WUHU216HW,2013-05-24 08:52:00,
2013-05-24 01:57:00,51.5,39.2,29.90,WNW,293,0.0,0.0,63,0.00,,,0.00,WUHU216HW,2013-05-24 08:57:00,
2013-05-24 02:02:00,51.3,39.5,29.90,WSW,248,0.0,0.4,64,0.00,,,0.00,WUHU216HW,2013-05-24 09:02:00,
2013-05-24 02:07:00,50.8,40.2,29.89,West,270,0.0,0.4,67,0.00,,,0.00,WUHU216HW,2013-05-24 09:07:00,
2013-05-24 02:12:00,50.2,39.7,29.89,West,270,0.0,0.4,67,0.00,,,0.00,WUHU216HW,2013-05-24 09:12:00,
2013-05-24 02:17:00,50.0,39.1,29.89,West,270,0.0,0.2,66,0.00,,,0.00,WUHU216HW,2013-05-24 09:17:00,
2013-05-24 02:22:00,50.0,39.5,29.89,West,270,0.0,0.0,67,0.00,,,0.00,WUHU216HW,2013-05-24 09:22:00,
2013-05-24 02:27:00,50.0,39.1,29.89,West,270,0.0,0.0,66,0.00,,,0.00,WUHU216HW,2013-05-24 09:27:00,
2013-05-24 02:32:00,49.9,39.3,29.89,West,270,0.7,0.7,67,0.00,,,0.00,WUHU216HW,2013-05-24 09:32:00,
2013-05-24 02:37:00,49.5,39.3,29.90,WSW,248,0.0,0.7,68,0.00,,,0.00,WUHU216HW,2013-05-24 09:37:00,
2013-05-24 02:42:00,49.3,39.2,29.89,WSW,248,0.0,0.7,68,0.00,,,0.00,WUHU216HW,2013-05-24 09:42:00,
2013-05-24 02:47:00,49.3,39.6,29.89,WSW,248,0.0,0.0,69,0.00,,,0.00,WUHU216HW,2013-05-24 09:47:00,
2013-05-24 02:52:00,49.0,39.3,29.89,WSW,248,0.0,0.0,69,0.00,,,0.00,WUHU216HW,2013-05-24 09:52:00,
2013-05-24 02:57:00,48.8,40.2,29.90,West,270,0.2,0.2,72,0.00,,,0.00,WUHU216HW,2013-05-24 09:57:00,
2013-05-24 03:02:00,48.8,40.2,29.90,West,270,0.0,0.2,72,0.00,,,0.00,WUHU216HW,2013-05-24 10:02:00,
2013-05-24 03:07:00,49.0,40.3,29.90,West,270,0.0,0.2,72,0.00,,,0.00,WUHU216HW,2013-05-24 10:07:00,
2013-05-24 03:12:00,49.3,40.3,29.90,West,270,0.0,0.0,71,0.00,,,0.00,WUHU216HW,2013-05-24 10:12:00,
2013-05-24 03:17:00,49.7,40.3,29.90,West,270,0.4,0.4,70,0.00,,,0.00,WUHU216HW,2013-05-24 10:17:00,
2013-05-24 03:22:00,49.7,40.3,29.90,SSW,203,1.1,1.1,70,0.00,,,0.00,WUHU216HW,2013-05-24 10:22:00,
2013-05-24 03:27:00,49.3,39.6,29.90,SW,225,0.0,1.1,69,0.00,,,0.00,WUHU216HW,2013-05-24 10:27:00,
2013-05-24 03:32:00,49.0,39.3,29.90,SW,225,0.0,1.1,69,0.00,,,0.00,WUHU216HW,2013-05-24 10:32:00,
2013-05-24 03:37:00,48.8,39.4,29.90,SW,225,0.0,0.0,70,0.00,,,0.00,WUHU216HW,2013-05-24 10:37:00,
2013-05-24 03:42:00,48.8,39.8,29.90,SW,225,0.0,0.0,71,0.00,,,0.00,WUHU216HW,2013-05-24 10:42:00,
2013-05-24 03:46:00,48.6,39.6,29.90,SW,225,0.0,0.0,71,0.00,,,0.00,WUHU216HW,2013-05-24 10:46:00,
2013-05-24 03:51:00,49.0,40.0,29.90,SW,225,0.0,0.0,71,0.00,,,0.00,WUHU216HW,2013-05-24 10:51:00,
2013-05-24 03:56:00,49.0,39.6,29.90,SW,225,0.0,0.0,70,0.00,,,0.00,WUHU216HW,2013-05-24 10:56:00,
2013-05-24 04:01:00,48.8,39.1,29.90,SW,225,0.0,0.0,69,0.00,,,0.00,WUHU216HW,2013-05-24 11:01:00,
2013-05-24 04:06:00,48.6,39.6,29.90,SW,225,0.0,0.0,71,0.00,,,0.00,WUHU216HW,2013-05-24 11:06:00,
2013-05-24 04:11:00,48.8,40.2,29.90,SW,225,0.0,0.0,72,0.00,,,0.00,WUHU216HW,2013-05-24 11:11:00,
2013-05-24 04:16:00,49.0,40.6,29.89,SSE,158,0.4,0.4,73,0.00,,,0.00,WUHU216HW,2013-05-24 11:16:00,
2013-05-24 04:21:00,48.8,40.2,29.89,SSE,158,0.0,0.4,72,0.00,,,0.00,WUHU216HW,2013-05-24 11:21:00,
2013-05-24 04:26:00,49.0,40.3,29.89,SSE,158,0.0,0.4,72,0.00,,,0.00,WUHU216HW,2013-05-24 11:26:00,
2013-05-24 04:31:00,49.1,40.2,29.89,SSE,158,0.0,0.0,71,0.00,,,0.00,WUHU216HW,2013-05-24 11:31:00,
2013-05-24 04:36:00,49.3,40.3,29.89,ENE,68,0.0,0.0,71,0.00,,,0.00,WUHU216HW,2013-05-24 11:36:00,
2013-05-24 04:41:00,49.3,40.3,29.89,ENE,68,0.0,1.1,71,0.00,,,0.00,WUHU216HW,2013-05-24 11:41:00,
2013-05-24 04:46:00,49.5,40.5,29.89,NNE,23,0.0,1.1,71,0.00,,,0.00,WUHU216HW,2013-05-24 11:46:00,
2013-05-24 04:51:00,49.5,40.5,29.89,NNW,338,0.0,0.4,71,0.00,,,0.00,WUHU216HW,2013-05-24 11:51:00,
2013-05-24 04:56:00,49.5,40.1,29.89,NNW,338,0.0,0.2,70,0.00,,,0.00,WUHU216HW,2013-05-24 11:56:00,
2013-05-24 05:01:00,49.7,40.3,29.88,NNW,338,0.0,0.2,70,0.00,,,0.00,WUHU216HW,2013-05-24 12:01:00,
2013-05-24 05:06:00,49.7,40.0,29.89,SW,225,0.0,0.2,69,0.00,,,0.00,WUHU216HW,2013-05-24 12:06:00,
2013-05-24 05:11:00,49.9,40.2,29.89,WSW,248,0.0,0.4,69,0.00,,,0.00,WUHU216HW,2013-05-24 12:11:00,
2013-05-24 05:16:00,49.9,40.2,29.88,NE,45,0.0,0.4,69,0.00,,,0.00,WUHU216HW,2013-05-24 12:16:00,
2013-05-24 05:21:00,50.0,40.7,29.88,West,270,0.0,0.4,70,0.00,,,0.00,WUHU216HW,2013-05-24 12:21:00,
2013-05-24 05:26:00,50.0,40.7,29.88,WNW,293,0.0,0.4,70,0.00,,,0.00,WUHU216HW,2013-05-24 12:26:00,
2013-05-24 05:31:00,50.0,40.3,29.89,WNW,293,0.0,0.4,69,0.00,,,0.00,WUHU216HW,2013-05-24 12:31:00,
2013-05-24 05:36:00,50.0,39.9,29.89,WNW,293,0.0,0.4,68,0.00,,,0.00,WUHU216HW,2013-05-24 12:36:00,
2013-05-24 05:41:00,50.0,39.9,29.89,WNW,293,0.0,0.2,68,0.00,,,0.00,WUHU216HW,2013-05-24 12:41:00,
2013-05-24 05:46:00,50.0,39.9,29.89,WNW,293,0.0,0.0,68,0.00,,,0.00,WUHU216HW,2013-05-24 12:46:00,
2013-05-24 05:51:00,50.0,39.9,29.89,NNE,23,0.0,0.2,68,0.00,,,0.00,WUHU216HW,2013-05-24 12:51:00,
2013-05-24 05:56:00,50.0,39.5,29.89,SW,225,0.0,0.2,67,0.00,,,0.00,WUHU216HW,2013-05-24 12:56:00,
2013-05-24 06:01:00,50.2,39.7,29.89,WNW,293,0.0,0.4,67,0.00,,,0.00,WUHU216HW,2013-05-24 13:01:00,
2013-05-24 06:06:00,50.4,39.9,29.89,North,0,0.0,0.4,67,0.00,,,0.00,WUHU216HW,2013-05-24 13:06:00,
2013-05-24 06:11:00,50.4,39.9,29.89,North,0,0.0,0.0,67,0.00,,,0.00,WUHU216HW,2013-05-24 13:11:00,
2013-05-24 06:16:00,50.8,40.6,29.89,West,270,0.4,0.4,68,0.00,,,0.00,WUHU216HW,2013-05-24 13:16:00,
2013-05-24 06:21:00,50.8,40.2,29.89,SSW,203,0.0,0.4,67,0.00,,,0.00,WUHU216HW,2013-05-24 13:21:00,
2013-05-24 06:26:00,50.8,40.2,29.89,ENE,68,0.0,0.4,67,0.00,,,0.00,WUHU216HW,2013-05-24 13:26:00,
2013-05-24 06:31:00,50.9,40.3,29.89,SW,225,0.7,0.7,67,0.00,,,0.00,WUHU216HW,2013-05-24 13:31:00,
2013-05-24 06:36:00,51.5,41.3,29.90,SW,225,0.9,1.1,68,0.00,,,0.00,WUHU216HW,2013-05-24 13:36:00,
2013-05-24 06:41:00,51.5,41.3,29.90,SW,225,0.0,1.1,68,0.00,,,0.00,WUHU216HW,2013-05-24 13:41:00,
2013-05-24 06:46:00,51.5,41.3,29.90,SSW,203,0.9,1.1,68,0.00,,,0.00,WUHU216HW,2013-05-24 13:46:00,
2013-05-24 06:51:00,51.3,41.1,29.90,SSW,203,0.0,1.1,68,0.00,,,0.00,WUHU216HW,2013-05-24 13:51:00,
2013-05-24 06:56:00,51.1,41.0,29.91,SW,225,0.0,0.9,68,0.00,,,0.00,WUHU216HW,2013-05-24 13:56:00,
2013-05-24 07:01:00,51.1,41.0,29.91,SW,225,0.0,0.0,68,0.00,,,0.00,WUHU216HW,2013-05-24 14:01:00,
2013-05-24 07:06:00,51.1,41.3,29.91,SSW,203,0.2,0.7,69,0.00,,,0.00,WUHU216HW,2013-05-24 14:06:00,
2013-05-24 07:11:00,51.5,41.7,29.91,SSW,203,0.7,0.7,69,0.00,,,0.00,WUHU216HW,2013-05-24 14:11:00,
2013-05-24 07:16:00,51.8,42.0,29.92,SW,225,0.0,0.7,69,0.00,,,0.00,WUHU216HW,2013-05-24 14:16:00,
2013-05-24 07:21:00,52.2,42.9,29.92,SW,225,0.0,0.7,70,0.00,,,0.00,WUHU216HW,2013-05-24 14:21:00,
2013-05-24 07:26:00,52.6,42.8,29.92,SSW,203,1.1,1.1,69,0.00,,,0.00,WUHU216HW,2013-05-24 14:26:00,
2013-05-24 07:31:00,53.1,42.9,29.92,SW,225,0.0,1.1,68,0.00,,,0.00,WUHU216HW,2013-05-24 14:31:00,
2013-05-24 07:36:00,53.6,42.9,29.92,SE,135,0.0,1.1,67,0.00,,,0.00,WUHU216HW,2013-05-24 14:36:00,
2013-05-24 07:41:00,54.4,43.7,29.93,ENE,68,0.0,0.4,67,0.00,,,0.00,WUHU216HW,2013-05-24 14:41:00,
2013-05-24 07:46:00,54.7,43.6,29.93,ESE,113,1.1,1.6,66,0.00,,,0.00,WUHU216HW,2013-05-24 14:46:00,
2013-05-24 07:51:00,55.3,44.1,29.93,ESE,113,0.9,2.0,66,0.00,,,0.00,WUHU216HW,2013-05-24 14:51:00,
2013-05-24 07:56:00,55.8,44.6,29.93,SW,225,0.4,2.0,66,0.00,,,0.00,WUHU216HW,2013-05-24 14:56:00,
2013-05-24 08:01:00,56.5,45.3,29.94,SW,225,1.3,1.3,66,0.00,,,0.00,WUHU216HW,2013-05-24 15:01:00,
2013-05-24 08:06:00,57.2,45.5,29.94,SW,225,1.1,1.3,65,0.00,,,0.00,WUHU216HW,2013-05-24 15:06:00,
2013-05-24 08:11:00,57.6,45.5,29.94,SSW,203,1.1,1.3,64,0.00,,,0.00,WUHU216HW,2013-05-24 15:11:00,
2013-05-24 08:16:00,58.0,45.8,29.94,SSW,203,1.3,1.3,64,0.00,,,0.00,WUHU216HW,2013-05-24 15:16:00,
2013-05-24 08:21:00,58.1,45.6,29.94,WSW,248,0.4,1.8,63,0.00,,,0.00,WUHU216HW,2013-05-24 15:21:00,
2013-05-24 08:26:00,58.3,45.4,29.94,SE,135,1.6,2.9,62,0.00,,,0.00,WUHU216HW,2013-05-24 15:26:00,
2013-05-24 08:31:00,58.5,45.6,29.94,NE,45,0.4,2.9,62,0.00,,,0.00,WUHU216HW,2013-05-24 15:31:00,
2013-05-24 08:36:00,58.9,45.8,29.94,SE,135,0.2,1.1,62,0.00,,,0.00,WUHU216HW,2013-05-24 15:36:00,
2013-05-24 08:41:00,59.2,46.2,29.94,SW,225,0.7,1.1,62,0.00,,,0.00,WUHU216HW,2013-05-24 15:41:00,
2013-05-24 08:46:00,59.6,46.2,29.93,ENE,68,1.3,1.6,61,0.00,,,0.00,WUHU216HW,2013-05-24 15:46:00,
2013-05-24 08:51:00,60.1,46.7,29.94,WNW,293,0.2,1.6,61,0.00,,,0.00,WUHU216HW,2013-05-24 15:51:00,
2013-05-24 08:56:00,60.8,46.5,29.94,South,180,0.9,1.3,59,0.00,,,0.00,WUHU216HW,2013-05-24 15:56:00,
2013-05-24 09:01:00,61.2,46.8,29.94,SSW,203,1.6,1.6,59,0.00,,,0.00,WUHU216HW,2013-05-24 16:01:00,
2013-05-24 09:06:00,61.2,46.4,29.94,NNW,338,0.7,3.4,58,0.00,,,0.00,WUHU216HW,2013-05-24 16:06:00,
2013-05-24 09:11:00,61.6,46.6,29.94,ESE,113,1.8,3.4,58,0.00,,,0.00,WUHU216HW,2013-05-24 16:11:00,
2013-05-24 09:16:00,61.6,46.2,29.94,ENE,68,1.1,2.2,57,0.00,,,0.00,WUHU216HW,2013-05-24 16:16:00,
2013-05-24 09:21:00,61.9,46.0,29.93,South,180,1.1,2.2,56,0.00,,,0.00,WUHU216HW,2013-05-24 16:21:00,
2013-05-24 09:26:00,62.3,45.4,29.94,ESE,113,0.9,2.2,54,0.00,,,0.00,WUHU216HW,2013-05-24 16:26:00,
2013-05-24 09:31:00,62.8,46.4,29.94,South,180,1.8,2.2,55,0.00,,,0.00,WUHU216HW,2013-05-24 16:31:00,
2013-05-24 09:36:00,62.8,46.4,29.94,South,180,1.8,1.8,55,0.00,,,0.00,WUHU216HW,2013-05-24 16:36:00,
2013-05-24 09:41:00,64.1,45.6,29.93,NE,45,0.4,2.5,51,0.00,,,0.00,WUHU216HW,2013-05-24 16:41:00,
2013-05-24 09:46:00,64.8,45.7,29.93,ESE,113,1.1,2.5,50,0.00,,,0.00,WUHU216HW,2013-05-24 16:46:00,
2013-05-24 09:51:00,65.9,46.2,29.93,SW,225,0.7,2.2,49,0.00,,,0.00,WUHU216HW,2013-05-24 16:51:00,
2013-05-24 09:56:00,67.0,46.6,29.93,ESE,113,1.1,2.9,48,0.00,,,0.00,WUHU216HW,2013-05-24 16:56:00,
2013-05-24 10:01:00,67.5,46.5,29.93,SW,225,1.8,2.9,47,0.00,,,0.00,WUHU216HW,2013-05-24 17:01:00,
2013-05-24 10:06:00,68.4,46.2,29.93,SSW,203,1.1,2.2,45,0.00,,,0.00,WUHU216HW,2013-05-24 17:06:00,
2013-05-24 10:11:00,68.6,45.1,29.93,ENE,68,1.3,2.2,43,0.00,,,0.00,WUHU216HW,2013-05-24 17:11:00,
2013-05-24 10:16:00,69.3,47.0,29.92,ESE,113,1.1,2.2,45,0.00,,,0.00,WUHU216HW,2013-05-24 17:16:00,
2013-05-24 10:21:00,70.2,46.0,29.92,ENE,68,0.7,2.2,42,0.00,,,0.00,WUHU216HW,2013-05-24 17:21:00,
2013-05-24 10:26:00,70.0,45.2,29.92,ESE,113,1.8,2.5,41,0.00,,,0.00,WUHU216HW,2013-05-24 17:26:00,
2013-05-24 10:31:00,70.0,46.5,29.92,SSW,203,1.3,3.8,43,0.00,,,0.00,WUHU216HW,2013-05-24 17:31:00,
2013-05-24 10:36:00,70.6,45.7,29.91,WSW,248,0.4,3.8,41,0.00,,,0.00,WUHU216HW,2013-05-24 17:36:00,
2013-05-24 10:41:00,71.1,45.6,29.91,West,270,0.7,2.5,40,0.00,,,0.00,WUHU216HW,2013-05-24 17:41:00,
2013-05-24 10:46:00,71.6,46.7,29.92,West,270,0.2,2.2,41,0.00,,,0.00,WUHU216HW,2013-05-24 17:46:00,
2013-05-24 10:51:00,72.2,47.2,29.92,SW,225,0.4,2.5,41,0.00,,,0.00,WUHU216HW,2013-05-24 17:51:00,
2013-05-24 10:56:00,72.7,46.3,29.92,SSW,203,1.8,2.5,39,0.00,,,0.00,WUHU216HW,2013-05-24 17:56:00,
2013-05-24 11:01:00,73.8,46.5,29.92,South,180,1.3,1.8,38,0.00,,,0.00,WUHU216HW,2013-05-24 18:01:00,
2013-05-24 11:06:00,74.5,45.6,29.92,SSE,158,2.9,3.8,36,0.00,,,0.00,WUHU216HW,2013-05-24 18:06:00,
2013-05-24 11:11:00,74.7,46.5,29.91,SE,135,0.2,3.8,37,0.00,,,0.00,WUHU216HW,2013-05-24 18:11:00,
2013-05-24 11:16:00,74.7,45.1,29.92,South,180,2.7,3.6,35,0.00,,,0.00,WUHU216HW,2013-05-24 18:16:00,
2013-05-24 11:21:00,74.2,43.8,29.92,ESE,113,3.6,3.6,34,0.00,,,0.00,WUHU216HW,2013-05-24 18:21:00,
2013-05-24 11:26:00,73.8,44.3,29.91,East,90,4.0,4.0,35,0.00,,,0.00,WUHU216HW,2013-05-24 18:26:00,
2013-05-24 11:31:00,74.5,46.5,29.91,SW,225,2.5,4.0,37,0.00,,,0.00,WUHU216HW,2013-05-24 18:31:00,
2013-05-24 11:36:00,75.4,44.9,29.91,WSW,248,0.4,4.0,34,0.00,,,0.00,WUHU216HW,2013-05-24 18:36:00,
2013-05-24 11:41:00,75.4,44.2,29.91,SW,225,1.8,3.6,33,0.00,,,0.00,WUHU216HW,2013-05-24 18:41:00,
2013-05-24 11:46:00,74.9,43.8,29.91,NNW,338,1.8,3.6,33,0.00,,,0.00,WUHU216HW,2013-05-24 18:46:00,
2013-05-24 11:51:00,75.6,44.4,29.91,ESE,113,4.3,4.3,33,0.00,,,0.00,WUHU216HW,2013-05-24 18:51:00,
2013-05-24 11:56:00,75.6,45.9,29.91,SSE,158,1.1,4.3,35,0.00,,,0.00,WUHU216HW,2013-05-24 18:56:00,
2013-05-24 12:01:00,76.0,47.0,29.91,SW,225,2.7,4.3,36,0.00,,,0.00,WUHU216HW,2013-05-24 19:01:00,
2013-05-24 12:06:00,76.0,45.5,29.91,WNW,293,1.6,3.4,34,0.00,,,0.00,WUHU216HW,2013-05-24 19:06:00,
2013-05-24 12:11:00,76.0,46.2,29.91,SE,135,1.8,3.4,35,0.00,,,0.00,WUHU216HW,2013-05-24 19:11:00,
2013-05-24 12:16:00,76.3,45.7,29.90,SSE,158,1.8,2.0,34,0.00,,,0.00,WUHU216HW,2013-05-24 19:16:00,
2013-05-24 12:21:00,76.5,45.2,29.90,WSW,248,0.2,3.1,33,0.00,,,0.00,WUHU216HW,2013-05-24 19:21:00,
2013-05-24 12:26:00,76.5,44.4,29.90,West,270,2.2,3.8,32,0.00,,,0.00,WUHU216HW,2013-05-24 19:26:00,
2013-05-24 12:31:00,75.8,42.2,29.90,SE,135,1.6,3.8,30,0.00,,,0.00,WUHU216HW,2013-05-24 19:31:00,
2013-05-24 12:36:00,76.0,43.9,29.90,ESE,113,2.5,3.6,32,0.00,,,0.00,WUHU216HW,2013-05-24 19:36:00,
2013-05-24 12:41:00,76.3,44.3,29.90,WSW,248,1.3,4.3,32,0.00,,,0.00,WUHU216HW,2013-05-24 19:41:00,
2013-05-24 12:46:00,76.0,43.2,29.90,WNW,293,1.8,4.3,31,0.00,,,0.00,WUHU216HW,2013-05-24 19:46:00,
2013-05-24 12:51:00,75.8,42.2,29.90,SSE,158,1.8,2.5,30,0.00,,,0.00,WUHU216HW,2013-05-24 19:51:00,
2013-05-24 12:56:00,75.8,40.1,29.89,WNW,293,0.4,2.5,28,0.00,,,0.00,WUHU216HW,2013-05-24 19:56:00,
2013-05-24 13:01:00,76.1,41.6,29.90,ESE,113,2.5,3.1,29,0.00,,,0.00,WUHU216HW,2013-05-24 20:01:00,
2013-05-24 13:06:00,76.7,42.0,29.90,WNW,293,3.8,3.8,29,0.00,,,0.00,WUHU216HW,2013-05-24 20:06:00,
2013-05-24 13:11:00,76.1,41.6,29.90,WNW,293,4.7,4.7,29,0.00,,,0.00,WUHU216HW,2013-05-24 20:11:00,
2013-05-24 13:16:00,75.8,43.0,29.90,West,270,1.8,4.7,31,0.00,,,0.00,WUHU216HW,2013-05-24 20:16:00,
2013-05-24 13:21:00,76.1,42.6,29.89,West,270,0.4,4.7,30,0.00,,,0.00,WUHU216HW,2013-05-24 20:21:00,
2013-05-24 13:25:00,76.1,42.6,29.89,SSE,158,1.1,4.0,30,0.00,,,0.00,WUHU216HW,2013-05-24 20:25:00,
2013-05-24 13:30:00,76.0,41.4,29.89,NNW,338,1.1,4.0,29,0.00,,,0.00,WUHU216HW,2013-05-24 20:30:00,
2013-05-24 13:35:00,76.3,41.7,29.89,WNW,293,2.2,4.0,29,0.00,,,0.00,WUHU216HW,2013-05-24 20:35:00,
2013-05-24 13:40:00,76.3,41.7,29.89,West,270,2.0,4.0,29,0.00,,,0.00,WUHU216HW,2013-05-24 20:40:00,
2013-05-24 13:45:00,76.3,40.7,29.89,North,0,1.3,4.0,28,0.00,,,0.00,WUHU216HW,2013-05-24 20:45:00,
2013-05-24 13:50:00,76.3,41.7,29.89,WNW,293,2.5,3.4,29,0.00,,,0.00,WUHU216HW,2013-05-24 20:50:00,
2013-05-24 13:55:00,76.1,42.6,29.88,West,270,1.8,3.4,30,0.00,,,0.00,WUHU216HW,2013-05-24 20:55:00,
2013-05-24 14:00:00,76.3,40.7,29.88,WNW,293,5.6,5.6,28,0.00,,,0.00,WUHU216HW,2013-05-24 21:00:00,
2013-05-24 14:05:00,76.3,40.7,29.88,West,270,2.0,5.6,28,0.00,,,0.00,WUHU216HW,2013-05-24 21:05:00,
2013-05-24 14:10:00,76.7,41.0,29.88,NW,315,0.7,5.6,28,0.00,,,0.00,WUHU216HW,2013-05-24 21:10:00,
2013-05-24 14:15:00,76.9,41.1,29.88,West,270,2.5,3.8,28,0.00,,,0.00,WUHU216HW,2013-05-24 21:15:00,
2013-05-24 14:20:00,77.2,40.4,29.88,SE,135,3.8,3.8,27,0.00,,,0.00,WUHU216HW,2013-05-24 21:20:00,
2013-05-24 14:25:00,77.4,41.6,29.88,NW,315,2.0,4.0,28,0.00,,,0.00,WUHU216HW,2013-05-24 21:25:00,
2013-05-24 14:30:00,77.4,41.6,29.87,SW,225,2.5,4.0,28,0.00,,,0.00,WUHU216HW,2013-05-24 21:30:00,
2013-05-24 14:35:00,77.8,39.8,29.88,SSW,203,1.1,3.4,26,0.00,,,0.00,WUHU216HW,2013-05-24 21:35:00,
2013-05-24 14:41:00,77.9,40.0,29.87,North,0,0.2,3.4,26,0.00,,,0.00,WUHU216HW,2013-05-24 21:41:00,
2013-05-24 14:46:00,78.1,40.1,29.87,SSW,203,1.6,3.1,26,0.00,,,0.00,WUHU216HW,2013-05-24 21:46:00,
2013-05-24 14:51:00,78.3,39.2,29.87,SSE,158,1.1,3.1,25,0.00,,,0.00,WUHU216HW,2013-05-24 21:51:00,
2013-05-24 14:56:00,78.5,39.3,29.87,SE,135,0.7,2.0,25,0.00,,,0.00,WUHU216HW,2013-05-24 21:56:00,
2013-05-24 15:01:00,78.5,40.3,29.87,WNW,293,4.0,4.0,26,0.00,,,0.00,WUHU216HW,2013-05-24 22:01:00,
2013-05-24 15:06:00,78.5,41.4,29.87,West,270,1.1,4.0,27,0.00,,,0.00,WUHU216HW,2013-05-24 22:06:00,
2013-05-24 15:11:00,78.7,40.5,29.87,West,270,1.8,4.0,26,0.00,,,0.00,WUHU216HW,2013-05-24 22:11:00,
2013-05-24 15:16:00,78.8,39.6,29.87,SSW,203,1.6,3.4,25,0.00,,,0.00,WUHU216HW,2013-05-24 22:16:00,
2013-05-24 15:21:00,79.0,39.8,29.86,SE,135,1.3,3.4,25,0.00,,,0.00,WUHU216HW,2013-05-24 22:21:00,
2013-05-24 15:26:00,79.0,39.8,29.86,SE,135,2.5,3.8,25,0.00,,,0.00,WUHU216HW,2013-05-24 22:26:00,
2013-05-24 15:31:00,79.2,40.0,29.86,SSW,203,1.3,3.8,25,0.00,,,0.00,WUHU216HW,2013-05-24 22:31:00,
2013-05-24 15:36:00,79.2,38.9,29.86,NW,315,2.7,3.1,24,0.00,,,0.00,WUHU216HW,2013-05-24 22:36:00,
2013-05-24 15:41:00,78.8,38.5,29.86,SSW,203,3.4,4.0,24,0.00,,,0.00,WUHU216HW,2013-05-24 22:41:00,
2013-05-24 15:46:00,78.7,37.4,29.86,NNW,338,0.4,4.0,23,0.00,,,0.00,WUHU216HW,2013-05-24 22:46:00,
2013-05-24 15:51:00,78.5,38.3,29.86,ESE,113,1.1,3.4,24,0.00,,,0.00,WUHU216HW,2013-05-24 22:51:00,
2013-05-24 15:55:00,78.8,38.5,29.85,West,270,0.9,2.5,24,0.00,,,0.00,WUHU216HW,2013-05-24 22:55:00,
2013-05-24 16:00:00,78.8,37.5,29.86,WSW,248,1.1,2.5,23,0.00,,,0.00,WUHU216HW,2013-05-24 23:00:00,
2013-05-24 16:05:00,79.0,37.7,29.85,West,270,1.1,3.6,23,0.00,,,0.00,WUHU216HW,2013-05-24 23:05:00,
2013-05-24 16:10:00,79.2,37.8,29.85,SSW,203,2.5,4.3,23,0.00,,,0.00,WUHU216HW,2013-05-24 23:10:00,
2013-05-24 16:15:00,79.0,36.6,29.85,WSW,248,2.7,4.3,22,0.00,,,0.00,WUHU216HW,2013-05-24 23:15:00,
2013-05-24 16:20:00,78.8,37.5,29.85,SW,225,0.7,2.7,23,0.00,,,0.00,WUHU216HW,2013-05-24 23:20:00,
2013-05-24 16:25:00,78.8,37.5,29.85,East,90,1.6,2.7,23,0.00,,,0.00,WUHU216HW,2013-05-24 23:25:00,
2013-05-24 16:30:00,78.5,37.3,29.85,SE,135,1.8,2.7,23,0.00,,,0.00,WUHU216HW,2013-05-24 23:30:00,
2013-05-24 16:35:00,78.7,39.4,29.85,ESE,113,0.4,2.7,25,0.00,,,0.00,WUHU216HW,2013-05-24 23:35:00,
2013-05-24 16:40:00,79.0,40.8,29.85,West,270,1.8,3.4,26,0.00,,,0.00,WUHU216HW,2013-05-24 23:40:00,
2013-05-24 16:45:00,79.6,40.2,29.85,WSW,248,2.2,3.4,25,0.00,,,0.00,WUHU216HW,2013-05-24 23:45:00,
2013-05-24 16:50:00,79.7,39.3,29.85,WNW,293,2.0,5.4,24,0.00,,,0.00,WUHU216HW,2013-05-24 23:50:00,
2013-05-24 16:55:00,79.9,40.6,29.85,NW,315,2.2,5.4,25,0.00,,,0.00,WUHU216HW,2013-05-24 23:55:00,
2013-05-24 17:00:00,79.9,40.6,29.84,SW,225,2.5,4.0,25,0.00,,,0.00,WUHU216HW,2013-05-25 00:00:00,
2013-05-24 17:05:00,79.9,41.6,29.84,WSW,248,1.3,4.0,26,0.00,,,0.00,WUHU216HW,2013-05-25 00:05:00,
2013-05-24 17:10:00,79.9,39.5,29.84,SSE,158,2.0,4.0,24,0.00,,,0.00,WUHU216HW,2013-05-25 00:10:00,
2013-05-24 17:15:00,79.7,41.5,29.84,SSW,203,1.8,4.0,26,0.00,,,0.00,WUHU216HW,2013-05-25 00:15:00,
2013-05-24 17:20:00,79.9,41.6,29.84,SW,225,4.3,4.5,26,0.00,,,0.00,WUHU216HW,2013-05-25 00:20:00,
2013-05-24 17:25:00,79.9,40.6,29.84,WNW,293,1.8,4.5,25,0.00,,,0.00,WUHU216HW,2013-05-25 00:25:00,
2013-05-24 17:30:00,79.7,40.4,29.84,WSW,248,2.5,4.3,25,0.00,,,0.00,WUHU216HW,2013-05-25 00:30:00,
2013-05-24 17:35:00,79.6,40.2,29.84,SW,225,1.1,3.6,25,0.00,,,0.00,WUHU216HW,2013-05-25 00:35:00,
2013-05-24 17:40:00,79.9,40.6,29.83,West,270,1.6,3.1,25,0.00,,,0.00,WUHU216HW,2013-05-25 00:40:00,
2013-05-24 17:45:00,80.1,40.8,29.83,WSW,248,2.2,4.7,25,0.00,,,0.00,WUHU216HW,2013-05-25 00:45:00,
2013-05-24 17:50:00,80.3,40.9,29.84,WSW,248,2.0,4.7,25,0.00,,,0.00,WUHU216HW,2013-05-25 00:50:00,
2013-05-24 17:55:00,81.0,41.5,29.84,SSW,203,1.8,3.1,25,0.00,,,0.00,WUHU216HW,2013-05-25 00:55:00,
2013-05-24 18:00:00,81.4,39.7,29.84,WSW,248,2.5,3.4,23,0.00,,,0.00,WUHU216HW,2013-05-25 01:00:00,
2013-05-24 18:05:00,80.5,39.0,29.84,WSW,248,2.9,3.4,23,0.00,,,0.00,WUHU216HW,2013-05-25 01:05:00,
2013-05-24 18:10:00,79.4,39.1,29.84,West,270,2.5,3.4,24,0.00,,,0.00,WUHU216HW,2013-05-25 01:10:00,
2013-05-24 18:15:00,78.5,38.3,29.84,WSW,248,2.0,3.4,24,0.00,,,0.00,WUHU216HW,2013-05-25 01:15:00,
2013-05-24 18:20:00,77.9,38.9,29.84,SW,225,3.8,3.8,25,0.00,,,0.00,WUHU216HW,2013-05-25 01:20:00,
2013-05-24 18:25:00,77.8,38.7,29.84,WSW,248,1.1,3.8,25,0.00,,,0.00,WUHU216HW,2013-05-25 01:25:00,
2013-05-24 18:30:00,77.9,38.9,29.84,SW,225,1.1,3.8,25,0.00,,,0.00,WUHU216HW,2013-05-25 01:30:00,
2013-05-24 18:35:00,78.5,37.3,29.84,South,180,2.9,4.0,23,0.00,,,0.00,WUHU216HW,2013-05-25 01:35:00,
2013-05-24 18:40:00,78.5,37.3,29.84,SW,225,1.3,4.5,23,0.00,,,0.00,WUHU216HW,2013-05-25 01:40:00,
2013-05-24 18:45:00,78.1,36.9,29.84,West,270,2.0,4.5,23,0.00,,,0.00,WUHU216HW,2013-05-25 01:45:00,
2013-05-24 18:50:00,77.9,36.8,29.84,SSE,158,2.7,3.4,23,0.00,,,0.00,WUHU216HW,2013-05-25 01:50:00,
2013-05-24 18:55:00,77.8,35.7,29.84,WSW,248,2.9,2.9,22,0.00,,,0.00,WUHU216HW,2013-05-25 01:55:00,
2013-05-24 19:00:00,77.4,35.3,29.84,SW,225,3.4,3.4,22,0.00,,,0.00,WUHU216HW,2013-05-25 02:00:00,
2013-05-24 19:05:00,76.9,34.9,29.84,WSW,248,2.0,3.4,22,0.00,,,0.00,WUHU216HW,2013-05-25 02:05:00,
2013-05-24 19:10:00,76.5,33.6,29.84,WSW,248,1.8,3.4,21,0.00,,,0.00,WUHU216HW,2013-05-25 02:10:00,
2013-05-24 19:15:00,76.1,33.3,29.84,SW,225,2.5,3.4,21,0.00,,,0.00,WUHU216HW,2013-05-25 02:15:00,
2013-05-24 19:20:00,76.0,34.1,29.84,SSW,203,1.1,3.4,22,0.00,,,0.00,WUHU216HW,2013-05-25 02:20:00,
2013-05-24 19:25:00,75.6,33.8,29.84,SW,225,1.8,2.7,22,0.00,,,0.00,WUHU216HW,2013-05-25 02:25:00,
2013-05-24 19:30:00,75.2,33.6,29.84,WSW,248,1.8,2.0,22,0.00,,,0.00,WUHU216HW,2013-05-25 02:30:00,
2013-05-24 19:35:00,74.9,33.3,29.85,South,180,3.4,3.4,22,0.00,,,0.00,WUHU216HW,2013-05-25 02:35:00,
2013-05-24 19:40:00,74.5,32.9,29.85,SSW,203,1.3,3.4,22,0.00,,,0.00,WUHU216HW,2013-05-25 02:40:00,
2013-05-24 19:45:00,74.3,32.9,29.85,WSW,248,1.3,3.4,22,0.00,,,0.00,WUHU216HW,2013-05-25 02:45:00,
2013-05-24 19:50:00,73.8,32.4,29.85,SSW,203,1.6,2.2,22,0.00,,,0.00,WUHU216HW,2013-05-25 02:50:00,
2013-05-24 19:55:00,73.4,33.1,29.85,SW,225,0.9,2.7,23,0.00,,,0.00,WUHU216HW,2013-05-25 02:55:00,
2013-05-24 20:00:00,73.1,33.8,29.85,SW,225,0.4,2.7,24,0.00,,,0.00,WUHU216HW,2013-05-25 03:00:00,
2013-05-24 20:05:00,72.7,34.5,29.85,SW,225,0.7,1.8,25,0.00,,,0.00,WUHU216HW,2013-05-25 03:05:00,
2013-05-24 20:10:00,72.2,34.0,29.85,SW,225,0.9,1.8,25,0.00,,,0.00,WUHU216HW,2013-05-25 03:10:00,
2013-05-24 20:15:00,71.6,34.6,29.85,SW,225,0.0,0.9,26,0.00,,,0.00,WUHU216HW,2013-05-25 03:15:00,
2013-05-24 20:20:00,71.1,35.2,29.85,SE,135,0.7,1.8,27,0.00,,,0.00,WUHU216HW,2013-05-25 03:20:00,
2013-05-24 20:25:00,70.4,35.6,29.85,SW,225,0.2,1.8,28,0.00,,,0.00,WUHU216HW,2013-05-25 03:25:00,
2013-05-24 20:30:00,69.8,37.8,29.85,ESE,113,0.7,1.8,31,0.00,,,0.00,WUHU216HW,2013-05-25 03:30:00,
2013-05-24 20:35:00,69.3,37.4,29.85,South,180,0.9,1.8,31,0.00,,,0.00,WUHU216HW,2013-05-25 03:35:00,
2013-05-24 20:40:00,68.9,37.0,29.85,SW,225,1.1,3.4,31,0.00,,,0.00,WUHU216HW,2013-05-25 03:40:00,
2013-05-24 20:45:00,68.8,37.6,29.85,SSE,158,1.8,3.4,32,0.00,,,0.00,WUHU216HW,2013-05-25 03:45:00,
2013-05-24 20:50:00,68.8,38.4,29.85,SSW,203,2.7,2.7,33,0.00,,,0.00,WUHU216HW,2013-05-25 03:50:00,
2013-05-24 20:55:00,68.4,39.5,29.85,SW,225,1.6,2.7,35,0.00,,,0.00,WUHU216HW,2013-05-25 03:55:00,
2013-05-24 21:00:00,68.0,39.2,29.86,SE,135,0.7,2.7,35,0.00,,,0.00,WUHU216HW,2013-05-25 04:00:00,
2013-05-24 21:01:00,68.0,39.9,29.85,SE,135,0.7,2.7,36,0.00,,,0.00,WUHU216HW,2013-05-25 04:01:00,
2013-05-24 21:06:00,67.7,40.3,29.86,SSE,158,0.7,1.8,37,0.00,,,0.00,WUHU216HW,2013-05-25 04:06:00,
2013-05-24 21:11:00,67.3,40.8,29.86,SE,135,0.4,1.8,38,0.00,,,0.00,WUHU216HW,2013-05-25 04:11:00,
2013-05-24 21:16:00,66.8,40.2,29.86,SE,135,0.4,0.9,38,0.00,,,0.00,WUHU216HW,2013-05-25 04:16:00,
2013-05-24 21:21:00,66.4,40.0,29.86,SE,135,0.7,0.9,38,0.00,,,0.00,WUHU216HW,2013-05-25 04:21:00,
2013-05-24 21:26:00,66.1,40.3,29.86,SSE,158,0.0,0.9,39,0.00,,,0.00,WUHU216HW,2013-05-25 04:26:00,
2013-05-24 21:31:00,65.7,40.8,29.86,South,180,0.7,0.7,40,0.00,,,0.00,WUHU216HW,2013-05-25 04:31:00,
2013-05-24 21:36:00,65.3,41.0,29.87,South,180,0.4,0.7,41,0.00,,,0.00,WUHU216HW,2013-05-25 04:36:00,
2013-05-24 21:41:00,65.0,41.9,29.87,SSE,158,0.9,0.9,43,0.00,,,0.00,WUHU216HW,2013-05-25 04:41:00,
2013-05-24 21:46:00,64.8,41.7,29.87,SSE,158,0.7,0.9,43,0.00,,,0.00,WUHU216HW,2013-05-25 04:46:00,
2013-05-24 21:51:00,64.4,41.3,29.87,SE,135,0.7,0.9,43,0.00,,,0.00,WUHU216HW,2013-05-25 04:51:00,
2013-05-24 21:56:00,64.1,41.6,29.87,SE,135,0.2,0.9,44,0.00,,,0.00,WUHU216HW,2013-05-25 04:56:00,
2013-05-24 22:01:00,63.7,41.9,29.87,ESE,113,0.2,0.7,45,0.00,,,0.00,WUHU216HW,2013-05-25 05:01:00,
2013-05-24 22:06:00,63.4,41.5,29.87,SE,135,0.0,0.4,45,0.00,,,0.00,WUHU216HW,2013-05-25 05:06:00,
2013-05-24 22:11:00,63.0,41.8,29.87,SE,135,0.2,0.4,46,0.00,,,0.00,WUHU216HW,2013-05-25 05:11:00,
2013-05-24 22:16:00,62.8,41.6,29.87,SE,135,0.0,1.6,46,0.00,,,0.00,WUHU216HW,2013-05-25 05:16:00,
2013-05-24 22:21:00,62.6,42.0,29.87,SSE,158,0.7,1.6,47,0.00,,,0.00,WUHU216HW,2013-05-25 05:21:00,
2013-05-24 22:26:00,62.5,41.9,29.88,SSE,158,0.4,0.7,47,0.00,,,0.00,WUHU216HW,2013-05-25 05:26:00,
2013-05-24 22:31:00,62.3,41.7,29.88,SSE,158,0.4,0.9,47,0.00,,,0.00,WUHU216HW,2013-05-25 05:31:00,
2013-05-24 22:36:00,62.3,41.7,29.88,SSE,158,0.0,0.9,47,0.00,,,0.00,WUHU216HW,2013-05-25 05:36:00,
2013-05-24 22:41:00,62.1,41.5,29.88,SSE,158,0.4,0.4,47,0.00,,,0.00,WUHU216HW,2013-05-25 05:41:00,
2013-05-24 22:46:00,61.9,41.4,29.88,SSE,158,0.2,0.4,47,0.00,,,0.00,WUHU216HW,2013-05-25 05:46:00,
2013-05-24 22:51:00,61.6,42.2,29.88,SSE,158,0.4,0.4,49,0.00,,,0.00,WUHU216HW,2013-05-25 05:51:00,
2013-05-24 22:56:00,61.4,42.6,29.88,SE,135,0.7,0.9,50,0.00,,,0.00,WUHU216HW,2013-05-25 05:56:00,
2013-05-24 23:01:00,61.0,42.3,29.88,SE,135,0.2,0.9,50,0.00,,,0.00,WUHU216HW,2013-05-25 06:01:00,
2013-05-24 23:06:00,60.8,42.1,29.88,SE,135,0.0,0.7,50,0.00,,,0.00,WUHU216HW,2013-05-25 06:06:00,
2013-05-24 23:11:00,60.5,41.8,29.88,SE,135,0.0,0.7,50,0.00,,,0.00,WUHU216HW,2013-05-25 06:11:00,
2013-05-24 23:16:00,60.1,41.9,29.88,SE,135,0.0,0.0,51,0.00,,,0.00,WUHU216HW,2013-05-25 06:16:00,
2013-05-24 23:21:00,59.8,42.1,29.88,SE,135,0.0,0.4,52,0.00,,,0.00,WUHU216HW,2013-05-25 06:21:00,
2013-05-24 23:26:00,59.4,42.2,29.88,SE,135,0.2,0.4,53,0.00,,,0.00,WUHU216HW,2013-05-25 06:26:00,
2013-05-24 23:31:00,59.0,42.0,29.88,SE,135,0.0,0.7,53,0.00,,,0.00,WUHU216HW,2013-05-25 06:31:00,
2013-05-24 23:36:00,58.9,42.7,29.88,SE,135,0.7,1.1,55,0.00,,,0.00,WUHU216HW,2013-05-25 06:36:00,
2013-05-24 23:41:00,58.9,42.7,29.88,SE,135,0.9,1.1,55,0.00,,,0.00,WUHU216HW,2013-05-25 06:41:00,
2013-05-24 23:46:00,58.9,43.1,29.88,SE,135,0.4,1.1,56,0.00,,,0.00,WUHU216HW,2013-05-25 06:46:00,
2013-05-24 23:51:00,58.9,43.1,29.88,ESE,113,0.7,1.1,56,0.00,,,0.00,WUHU216HW,2013-05-25 06:51:00,
2013-05-24 23:56:00,58.7,43.0,29.88,ESE,113,0.4,0.7,56,0.00,,,0.00,WUHU216HW,2013-05-25 06:56:00,